sensor_id;sensor_type;location;lat;lon;timestamp;P1;durP1;ratioP1;P2;durP2;ratioP2
77495;SDS011;66600;48.378;9.948;2023-04-03T00:01:17;8.70;;;5.20;;
77495;SDS011;66600;48.378;9.948;2023-04-03T00:03:43;8.52;;;5.20;;
77495;SDS011;66600;48.378;9.948;2023-04-03T00:06:09;7.97;;;5.15;;
77495;SDS011;66600;48.378;9.948;2023-04-03T00:08:36;10.18;;;6.03;;
77495;SDS011;66600;48.378;9.948;2023-04-03T00:11:02;11.52;;;5.82;;
77495;SDS011;66600;48.378;9.948;2023-04-03T00:13:28;10.93;;;5.20;;
77495;SDS011;66600;48.378;9.948;2023-04-03T00:15:54;7.53;;;5.07;;
77495;SDS011;66600;48.378;9.948;2023-04-03T00:18:20;9.27;;;5.20;;
77495;SDS011;66600;48.378;9.948;2023-04-03T00:20:45;8.02;;;5.32;;
77495;SDS011;66600;48.378;9.948;2023-04-03T00:23:11;8.18;;;5.35;;
77495;SDS011;66600;48.378;9.948;2023-04-03T00:25:36;9.10;;;5.22;;
77495;SDS011;66600;48.378;9.948;2023-04-03T00:28:02;9.50;;;4.55;;
77495;SDS011;66600;48.378;9.948;2023-04-03T00:30:28;8.75;;;4.85;;
77495;SDS011;66600;48.378;9.948;2023-04-03T00:32:53;9.45;;;5.60;;
77495;SDS011;66600;48.378;9.948;2023-04-03T00:35:20;9.38;;;5.18;;
77495;SDS011;66600;48.378;9.948;2023-04-03T00:37:46;8.38;;;5.47;;
77495;SDS011;66600;48.378;9.948;2023-04-03T00:40:13;9.95;;;5.32;;
77495;SDS011;66600;48.378;9.948;2023-04-03T00:42:40;9.05;;;5.90;;
77495;SDS011;66600;48.378;9.948;2023-04-03T00:47:52;8.48;;;5.55;;
77495;SDS011;66600;48.378;9.948;2023-04-03T00:50:18;8.98;;;5.78;;
77495;SDS011;66600;48.378;9.948;2023-04-03T00:52:43;8.30;;;5.53;;
77495;SDS011;66600;48.378;9.948;2023-04-03T00:55:11;11.27;;;5.32;;
77495;SDS011;66600;48.378;9.948;2023-04-03T00:57:37;8.63;;;5.72;;
77495;SDS011;66600;48.378;9.948;2023-04-03T01:00:07;8.18;;;4.88;;
77495;SDS011;66600;48.378;9.948;2023-04-03T01:02:35;8.63;;;5.47;;
77495;SDS011;66600;48.378;9.948;2023-04-03T01:05:01;10.60;;;6.35;;
77495;SDS011;66600;48.378;9.948;2023-04-03T01:07:28;10.23;;;6.55;;
77495;SDS011;66600;48.378;9.948;2023-04-03T01:09:59;10.27;;;6.10;;
77495;SDS011;66600;48.378;9.948;2023-04-03T01:12:27;9.57;;;5.50;;
77495;SDS011;66600;48.378;9.948;2023-04-03T01:14:55;8.40;;;5.28;;
77495;SDS011;66600;48.378;9.948;2023-04-03T01:17:32;12.23;;;5.78;;
77495;SDS011;66600;48.378;9.948;2023-04-03T01:25:34;9.25;;;4.95;;
77495;SDS011;66600;48.378;9.948;2023-04-03T01:28:11;8.13;;;4.55;;
77495;SDS011;66600;48.378;9.948;2023-04-03T01:30:45;6.82;;;4.15;;
77495;SDS011;66600;48.378;9.948;2023-04-03T01:33:21;9.48;;;4.20;;
77495;SDS011;66600;48.378;9.948;2023-04-03T01:35:46;6.13;;;3.75;;
77495;SDS011;66600;48.378;9.948;2023-04-03T01:38:11;6.30;;;3.97;;
77495;SDS011;66600;48.378;9.948;2023-04-03T01:40:37;5.88;;;4.22;;
77495;SDS011;66600;48.378;9.948;2023-04-03T01:43:02;6.18;;;3.75;;
77495;SDS011;66600;48.378;9.948;2023-04-03T01:45:27;6.68;;;3.95;;
77495;SDS011;66600;48.378;9.948;2023-04-03T01:47:53;5.63;;;3.90;;
77495;SDS011;66600;48.378;9.948;2023-04-03T01:50:18;6.55;;;3.65;;
77495;SDS011;66600;48.378;9.948;2023-04-03T01:52:43;6.95;;;3.88;;
77495;SDS011;66600;48.378;9.948;2023-04-03T01:55:08;5.60;;;3.40;;
77495;SDS011;66600;48.378;9.948;2023-04-03T01:57:34;5.93;;;3.50;;
77495;SDS011;66600;48.378;9.948;2023-04-03T02:00:00;5.28;;;3.22;;
77495;SDS011;66600;48.378;9.948;2023-04-03T02:02:25;6.55;;;3.33;;
77495;SDS011;66600;48.378;9.948;2023-04-03T02:04:50;5.68;;;3.53;;
77495;SDS011;66600;48.378;9.948;2023-04-03T02:07:15;7.60;;;3.90;;
77495;SDS011;66600;48.378;9.948;2023-04-03T02:09:41;4.93;;;3.42;;
77495;SDS011;66600;48.378;9.948;2023-04-03T02:12:06;6.50;;;3.70;;
77495;SDS011;66600;48.378;9.948;2023-04-03T02:14:32;6.07;;;3.95;;
77495;SDS011;66600;48.378;9.948;2023-04-03T02:16:57;5.93;;;3.70;;
77495;SDS011;66600;48.378;9.948;2023-04-03T02:19:22;5.50;;;3.65;;
77495;SDS011;66600;48.378;9.948;2023-04-03T02:21:48;6.28;;;4.13;;
77495;SDS011;66600;48.378;9.948;2023-04-03T02:24:13;5.78;;;3.63;;
77495;SDS011;66600;48.378;9.948;2023-04-03T02:26:38;5.60;;;3.67;;
77495;SDS011;66600;48.378;9.948;2023-04-03T02:29:04;7.00;;;4.07;;
77495;SDS011;66600;48.378;9.948;2023-04-03T02:31:29;5.82;;;3.90;;
77495;SDS011;66600;48.378;9.948;2023-04-03T02:33:55;6.70;;;4.57;;
77495;SDS011;66600;48.378;9.948;2023-04-03T02:36:20;6.65;;;3.90;;
77495;SDS011;66600;48.378;9.948;2023-04-03T02:38:45;6.55;;;3.85;;
77495;SDS011;66600;48.378;9.948;2023-04-03T02:41:11;5.55;;;3.90;;
77495;SDS011;66600;48.378;9.948;2023-04-03T02:43:37;7.53;;;3.78;;
77495;SDS011;66600;48.378;9.948;2023-04-03T02:46:03;6.45;;;4.25;;
77495;SDS011;66600;48.378;9.948;2023-04-03T02:48:29;5.20;;;3.70;;
77495;SDS011;66600;48.378;9.948;2023-04-03T02:50:54;7.40;;;3.92;;
77495;SDS011;66600;48.378;9.948;2023-04-03T02:53:20;6.22;;;3.95;;
77495;SDS011;66600;48.378;9.948;2023-04-03T02:55:46;7.18;;;4.35;;
77495;SDS011;66600;48.378;9.948;2023-04-03T02:58:11;7.82;;;4.15;;
77495;SDS011;66600;48.378;9.948;2023-04-03T03:00:37;9.88;;;5.30;;
77495;SDS011;66600;48.378;9.948;2023-04-03T03:03:03;5.80;;;4.32;;
77495;SDS011;66600;48.378;9.948;2023-04-03T03:05:28;6.63;;;4.03;;
77495;SDS011;66600;48.378;9.948;2023-04-03T03:07:54;9.30;;;4.68;;
77495;SDS011;66600;48.378;9.948;2023-04-03T03:10:19;6.07;;;4.03;;
77495;SDS011;66600;48.378;9.948;2023-04-03T03:12:45;7.32;;;4.13;;
77495;SDS011;66600;48.378;9.948;2023-04-03T03:15:11;6.25;;;3.92;;
77495;SDS011;66600;48.378;9.948;2023-04-03T03:17:36;6.00;;;4.40;;
77495;SDS011;66600;48.378;9.948;2023-04-03T03:20:02;6.05;;;4.07;;
77495;SDS011;66600;48.378;9.948;2023-04-03T03:22:29;7.18;;;3.65;;
77495;SDS011;66600;48.378;9.948;2023-04-03T03:24:55;5.40;;;3.70;;
77495;SDS011;66600;48.378;9.948;2023-04-03T03:27:20;5.90;;;3.83;;
77495;SDS011;66600;48.378;9.948;2023-04-03T03:29:45;3.53;;;2.50;;
77495;SDS011;66600;48.378;9.948;2023-04-03T03:32:11;5.53;;;3.08;;
77495;SDS011;66600;48.378;9.948;2023-04-03T03:34:36;5.43;;;2.90;;
77495;SDS011;66600;48.378;9.948;2023-04-03T03:37:01;6.30;;;3.47;;
77495;SDS011;66600;48.378;9.948;2023-04-03T03:39:27;3.55;;;2.55;;
77495;SDS011;66600;48.378;9.948;2023-04-03T03:41:53;4.28;;;2.85;;
77495;SDS011;66600;48.378;9.948;2023-04-03T03:44:18;3.47;;;2.53;;
77495;SDS011;66600;48.378;9.948;2023-04-03T03:46:44;4.93;;;2.63;;
77495;SDS011;66600;48.378;9.948;2023-04-03T03:49:09;6.35;;;2.65;;
77495;SDS011;66600;48.378;9.948;2023-04-03T03:51:36;3.33;;;2.38;;
77495;SDS011;66600;48.378;9.948;2023-04-03T03:54:01;5.03;;;2.60;;
77495;SDS011;66600;48.378;9.948;2023-04-03T03:56:26;4.88;;;2.55;;
77495;SDS011;66600;48.378;9.948;2023-04-03T03:58:52;3.70;;;2.40;;
77495;SDS011;66600;48.378;9.948;2023-04-03T04:01:17;5.10;;;2.22;;
77495;SDS011;66600;48.378;9.948;2023-04-03T04:03:42;3.83;;;2.40;;
77495;SDS011;66600;48.378;9.948;2023-04-03T04:06:08;4.20;;;2.58;;
77495;SDS011;66600;48.378;9.948;2023-04-03T04:08:33;4.18;;;3.00;;
77495;SDS011;66600;48.378;9.948;2023-04-03T04:10:59;4.38;;;2.50;;
77495;SDS011;66600;48.378;9.948;2023-04-03T04:13:24;9.10;;;3.25;;
77495;SDS011;66600;48.378;9.948;2023-04-03T04:15:49;5.28;;;2.88;;
77495;SDS011;66600;48.378;9.948;2023-04-03T04:18:15;5.03;;;3.00;;
77495;SDS011;66600;48.378;9.948;2023-04-03T04:20:40;5.38;;;3.17;;
77495;SDS011;66600;48.378;9.948;2023-04-03T04:23:05;4.32;;;2.45;;
77495;SDS011;66600;48.378;9.948;2023-04-03T04:25:31;4.45;;;2.72;;
77495;SDS011;66600;48.378;9.948;2023-04-03T04:27:56;4.07;;;3.08;;
77495;SDS011;66600;48.378;9.948;2023-04-03T04:30:21;5.45;;;2.55;;
77495;SDS011;66600;48.378;9.948;2023-04-03T04:32:47;4.88;;;2.80;;
77495;SDS011;66600;48.378;9.948;2023-04-03T04:35:12;4.18;;;2.88;;
77495;SDS011;66600;48.378;9.948;2023-04-03T04:37:37;3.45;;;2.70;;
77495;SDS011;66600;48.378;9.948;2023-04-03T04:40:03;4.85;;;2.72;;
77495;SDS011;66600;48.378;9.948;2023-04-03T04:42:29;4.90;;;2.83;;
77495;SDS011;66600;48.378;9.948;2023-04-03T04:44:54;4.45;;;2.80;;
77495;SDS011;66600;48.378;9.948;2023-04-03T04:47:19;6.85;;;2.75;;
77495;SDS011;66600;48.378;9.948;2023-04-03T04:49:45;5.22;;;3.28;;
77495;SDS011;66600;48.378;9.948;2023-04-03T04:52:12;4.63;;;2.90;;
77495;SDS011;66600;48.378;9.948;2023-04-03T04:54:37;4.68;;;2.95;;
77495;SDS011;66600;48.378;9.948;2023-04-03T04:57:03;4.90;;;3.28;;
77495;SDS011;66600;48.378;9.948;2023-04-03T04:59:28;5.72;;;2.97;;
77495;SDS011;66600;48.378;9.948;2023-04-03T05:01:54;5.68;;;2.72;;
77495;SDS011;66600;48.378;9.948;2023-04-03T05:04:19;4.72;;;3.10;;
77495;SDS011;66600;48.378;9.948;2023-04-03T05:06:45;8.02;;;3.20;;
77495;SDS011;66600;48.378;9.948;2023-04-03T05:09:10;5.43;;;2.60;;
77495;SDS011;66600;48.378;9.948;2023-04-03T05:11:35;5.35;;;3.03;;
77495;SDS011;66600;48.378;9.948;2023-04-03T05:14:01;5.82;;;3.08;;
77495;SDS011;66600;48.378;9.948;2023-04-03T05:16:26;3.83;;;2.80;;
77495;SDS011;66600;48.378;9.948;2023-04-03T05:18:52;4.38;;;3.20;;
77495;SDS011;66600;48.378;9.948;2023-04-03T05:21:17;5.28;;;3.03;;
77495;SDS011;66600;48.378;9.948;2023-04-03T05:23:48;4.22;;;3.03;;
77495;SDS011;66600;48.378;9.948;2023-04-03T05:26:13;4.43;;;3.28;;
77495;SDS011;66600;48.378;9.948;2023-04-03T05:28:38;6.07;;;3.50;;
77495;SDS011;66600;48.378;9.948;2023-04-03T05:31:07;7.88;;;3.70;;
77495;SDS011;66600;48.378;9.948;2023-04-03T05:33:55;4.90;;;2.88;;
77495;SDS011;66600;48.378;9.948;2023-04-03T05:36:20;4.70;;;2.90;;
77495;SDS011;66600;48.378;9.948;2023-04-03T05:38:46;5.75;;;3.88;;
77495;SDS011;66600;48.378;9.948;2023-04-03T05:41:12;4.93;;;2.83;;
77495;SDS011;66600;48.378;9.948;2023-04-03T05:43:37;5.28;;;3.03;;
77495;SDS011;66600;48.378;9.948;2023-04-03T05:46:04;8.15;;;3.30;;
77495;SDS011;66600;48.378;9.948;2023-04-03T05:48:33;5.85;;;3.33;;
77495;SDS011;66600;48.378;9.948;2023-04-03T05:50:58;6.63;;;3.15;;
77495;SDS011;66600;48.378;9.948;2023-04-03T05:53:25;5.25;;;3.08;;
77495;SDS011;66600;48.378;9.948;2023-04-03T05:55:53;6.07;;;3.03;;
77495;SDS011;66600;48.378;9.948;2023-04-03T05:58:18;5.78;;;3.30;;
77495;SDS011;66600;48.378;9.948;2023-04-03T06:00:44;4.45;;;3.00;;
77495;SDS011;66600;48.378;9.948;2023-04-03T06:03:10;5.35;;;3.50;;
77495;SDS011;66600;48.378;9.948;2023-04-03T06:05:36;5.50;;;3.50;;
77495;SDS011;66600;48.378;9.948;2023-04-03T06:08:01;5.80;;;3.28;;
77495;SDS011;66600;48.378;9.948;2023-04-03T06:10:27;3.80;;;2.78;;
77495;SDS011;66600;48.378;9.948;2023-04-03T06:12:53;4.75;;;3.28;;
77495;SDS011;66600;48.378;9.948;2023-04-03T06:15:18;6.68;;;3.05;;
77495;SDS011;66600;48.378;9.948;2023-04-03T06:17:46;9.52;;;3.10;;
77495;SDS011;66600;48.378;9.948;2023-04-03T06:20:12;13.95;;;3.25;;
77495;SDS011;66600;48.378;9.948;2023-04-03T06:22:37;4.50;;;3.13;;
77495;SDS011;66600;48.378;9.948;2023-04-03T06:25:03;5.43;;;3.03;;
77495;SDS011;66600;48.378;9.948;2023-04-03T06:27:28;5.57;;;3.47;;
77495;SDS011;66600;48.378;9.948;2023-04-03T06:29:54;4.88;;;3.20;;
77495;SDS011;66600;48.378;9.948;2023-04-03T06:32:19;4.85;;;2.88;;
77495;SDS011;66600;48.378;9.948;2023-04-03T06:34:45;5.90;;;3.65;;
77495;SDS011;66600;48.378;9.948;2023-04-03T06:37:17;5.68;;;2.78;;
77495;SDS011;66600;48.378;9.948;2023-04-03T06:39:45;5.25;;;3.53;;
77495;SDS011;66600;48.378;9.948;2023-04-03T06:42:10;5.03;;;3.22;;
77495;SDS011;66600;48.378;9.948;2023-04-03T06:44:36;6.28;;;3.60;;
77495;SDS011;66600;48.378;9.948;2023-04-03T06:47:01;5.82;;;3.67;;
77495;SDS011;66600;48.378;9.948;2023-04-03T06:49:27;4.90;;;3.33;;
77495;SDS011;66600;48.378;9.948;2023-04-03T06:51:53;6.43;;;3.63;;
77495;SDS011;66600;48.378;9.948;2023-04-03T06:54:19;5.85;;;3.35;;
77495;SDS011;66600;48.378;9.948;2023-04-03T06:56:44;5.38;;;3.80;;
77495;SDS011;66600;48.378;9.948;2023-04-03T06:59:10;6.78;;;3.67;;
77495;SDS011;66600;48.378;9.948;2023-04-03T07:01:38;5.65;;;3.20;;
77495;SDS011;66600;48.378;9.948;2023-04-03T07:04:04;5.43;;;3.28;;
77495;SDS011;66600;48.378;9.948;2023-04-03T07:06:30;6.18;;;3.30;;
77495;SDS011;66600;48.378;9.948;2023-04-03T07:11:24;5.38;;;3.30;;
77495;SDS011;66600;48.378;9.948;2023-04-03T07:13:49;7.22;;;3.80;;
77495;SDS011;66600;48.378;9.948;2023-04-03T07:16:15;10.38;;;3.70;;
77495;SDS011;66600;48.378;9.948;2023-04-03T07:18:40;5.45;;;3.80;;
77495;SDS011;66600;48.378;9.948;2023-04-03T07:21:06;8.02;;;4.00;;
77495;SDS011;66600;48.378;9.948;2023-04-03T07:23:32;7.53;;;3.63;;
77495;SDS011;66600;48.378;9.948;2023-04-03T07:25:57;5.88;;;3.35;;
77495;SDS011;66600;48.378;9.948;2023-04-03T07:28:23;6.18;;;3.63;;
77495;SDS011;66600;48.378;9.948;2023-04-03T07:30:50;6.68;;;3.42;;
77495;SDS011;66600;48.378;9.948;2023-04-03T07:33:17;7.10;;;3.67;;
77495;SDS011;66600;48.378;9.948;2023-04-03T07:35:44;6.68;;;3.60;;
77495;SDS011;66600;48.378;9.948;2023-04-03T07:38:10;5.13;;;3.58;;
77495;SDS011;66600;48.378;9.948;2023-04-03T07:40:36;5.72;;;4.07;;
77495;SDS011;66600;48.378;9.948;2023-04-03T07:43:02;6.53;;;3.38;;
77495;SDS011;66600;48.378;9.948;2023-04-03T07:45:28;5.30;;;3.45;;
77495;SDS011;66600;48.378;9.948;2023-04-03T07:47:54;5.00;;;3.13;;
77495;SDS011;66600;48.378;9.948;2023-04-03T07:50:20;6.60;;;3.90;;
77495;SDS011;66600;48.378;9.948;2023-04-03T07:52:45;6.70;;;3.50;;
77495;SDS011;66600;48.378;9.948;2023-04-03T07:55:11;5.43;;;3.40;;
77495;SDS011;66600;48.378;9.948;2023-04-03T07:57:37;7.20;;;3.65;;
77495;SDS011;66600;48.378;9.948;2023-04-03T08:00:03;5.97;;;3.55;;
77495;SDS011;66600;48.378;9.948;2023-04-03T08:02:30;7.05;;;3.72;;
77495;SDS011;66600;48.378;9.948;2023-04-03T08:04:56;5.07;;;3.45;;
77495;SDS011;66600;48.378;9.948;2023-04-03T08:07:22;7.15;;;3.70;;
77495;SDS011;66600;48.378;9.948;2023-04-03T08:09:47;6.28;;;3.92;;
77495;SDS011;66600;48.378;9.948;2023-04-03T08:12:13;8.45;;;3.58;;
77495;SDS011;66600;48.378;9.948;2023-04-03T08:14:39;5.90;;;4.00;;
77495;SDS011;66600;48.378;9.948;2023-04-03T08:17:05;7.63;;;4.10;;
77495;SDS011;66600;48.378;9.948;2023-04-03T08:19:30;5.90;;;3.58;;
77495;SDS011;66600;48.378;9.948;2023-04-03T08:21:56;5.15;;;3.35;;
77495;SDS011;66600;48.378;9.948;2023-04-03T08:24:23;6.47;;;3.97;;
77495;SDS011;66600;48.378;9.948;2023-04-03T08:26:49;4.85;;;3.80;;
77495;SDS011;66600;48.378;9.948;2023-04-03T08:29:15;5.43;;;3.60;;
77495;SDS011;66600;48.378;9.948;2023-04-03T08:31:40;7.78;;;4.45;;
77495;SDS011;66600;48.378;9.948;2023-04-03T08:34:05;6.68;;;3.72;;
77495;SDS011;66600;48.378;9.948;2023-04-03T08:36:31;6.28;;;3.40;;
77495;SDS011;66600;48.378;9.948;2023-04-03T08:38:56;6.30;;;3.88;;
77495;SDS011;66600;48.378;9.948;2023-04-03T08:41:33;5.22;;;3.70;;
77495;SDS011;66600;48.378;9.948;2023-04-03T08:51:56;6.28;;;3.80;;
77495;SDS011;66600;48.378;9.948;2023-04-03T08:54:28;5.22;;;3.75;;
77495;SDS011;66600;48.378;9.948;2023-04-03T08:56:58;4.85;;;3.42;;
77495;SDS011;66600;48.378;9.948;2023-04-03T09:01:54;5.30;;;4.20;;
77495;SDS011;66600;48.378;9.948;2023-04-03T09:04:22;7.57;;;3.92;;
77495;SDS011;66600;48.378;9.948;2023-04-03T09:06:50;5.22;;;3.60;;
77495;SDS011;66600;48.378;9.948;2023-04-03T09:09:27;4.97;;;3.03;;
77495;SDS011;66600;48.378;9.948;2023-04-03T09:12:17;5.65;;;4.00;;
77495;SDS011;66600;48.378;9.948;2023-04-03T09:14:54;6.10;;;3.97;;
77495;SDS011;66600;48.378;9.948;2023-04-03T09:17:49;23.27;;;12.57;;
77495;SDS011;66600;48.378;9.948;2023-04-03T09:23:09;6.50;;;4.30;;
77495;SDS011;66600;48.378;9.948;2023-04-03T09:25:43;7.85;;;4.75;;
77495;SDS011;66600;48.378;9.948;2023-04-03T09:28:09;7.35;;;4.40;;
77495;SDS011;66600;48.378;9.948;2023-04-03T09:30:34;5.35;;;4.10;;
77495;SDS011;66600;48.378;9.948;2023-04-03T09:33:00;5.18;;;4.00;;
77495;SDS011;66600;48.378;9.948;2023-04-03T09:35:27;5.90;;;4.20;;
77495;SDS011;66600;48.378;9.948;2023-04-03T09:37:54;5.50;;;3.80;;
77495;SDS011;66600;48.378;9.948;2023-04-03T09:42:50;4.93;;;4.00;;
77495;SDS011;66600;48.378;9.948;2023-04-03T09:45:34;7.93;;;4.32;;
77495;SDS011;66600;48.378;9.948;2023-04-03T09:48:12;5.50;;;4.40;;
77495;SDS011;66600;48.378;9.948;2023-04-03T09:53:32;5.85;;;3.90;;
77495;SDS011;66600;48.378;9.948;2023-04-03T09:56:00;6.28;;;3.35;;
77495;SDS011;66600;48.378;9.948;2023-04-03T09:58:33;6.20;;;4.60;;
77495;SDS011;66600;48.378;9.948;2023-04-03T10:01:03;5.55;;;4.18;;
77495;SDS011;66600;48.378;9.948;2023-04-03T10:03:33;5.63;;;4.07;;
77495;SDS011;66600;48.378;9.948;2023-04-03T10:06:00;6.22;;;3.95;;
77495;SDS011;66600;48.378;9.948;2023-04-03T10:08:29;6.57;;;4.40;;
77495;SDS011;66600;48.378;9.948;2023-04-03T10:11:13;5.80;;;4.18;;
77495;SDS011;66600;48.378;9.948;2023-04-03T10:13:54;5.80;;;3.80;;
77495;SDS011;66600;48.378;9.948;2023-04-03T10:16:35;6.90;;;4.70;;
77495;SDS011;66600;48.378;9.948;2023-04-03T10:22:08;7.43;;;4.13;;
77495;SDS011;66600;48.378;9.948;2023-04-03T10:24:57;6.75;;;4.15;;
77495;SDS011;66600;48.378;9.948;2023-04-03T10:27:37;7.07;;;4.57;;
77495;SDS011;66600;48.378;9.948;2023-04-03T10:30:26;7.93;;;4.32;;
77495;SDS011;66600;48.378;9.948;2023-04-03T10:35:39;5.93;;;4.32;;
77495;SDS011;66600;48.378;9.948;2023-04-03T10:47:06;4.65;;;3.55;;
77495;SDS011;66600;48.378;9.948;2023-04-03T10:50:00;7.75;;;4.13;;
77495;SDS011;66600;48.378;9.948;2023-04-03T10:52:37;3.97;;;2.75;;
77495;SDS011;66600;48.378;9.948;2023-04-03T10:58:01;5.50;;;3.50;;
77495;SDS011;66600;48.378;9.948;2023-04-03T11:03:23;4.28;;;3.30;;
77495;SDS011;66600;48.378;9.948;2023-04-03T11:05:56;7.85;;;3.58;;
77495;SDS011;66600;48.378;9.948;2023-04-03T11:10:51;7.13;;;3.47;;
77495;SDS011;66600;48.378;9.948;2023-04-03T11:14:03;7.13;;;3.22;;
77495;SDS011;66600;48.378;9.948;2023-04-03T11:16:18;6.13;;;3.20;;
77495;SDS011;66600;48.378;9.948;2023-04-03T11:18:49;4.97;;;3.60;;
77495;SDS011;66600;48.378;9.948;2023-04-03T11:21:20;7.13;;;3.55;;
77495;SDS011;66600;48.378;9.948;2023-04-03T11:23:49;8.15;;;3.75;;
77495;SDS011;66600;48.378;9.948;2023-04-03T11:26:18;5.90;;;4.18;;
77495;SDS011;66600;48.378;9.948;2023-04-03T11:31:15;8.43;;;3.70;;
77495;SDS011;66600;48.378;9.948;2023-04-03T11:36:33;5.43;;;3.67;;
77495;SDS011;66600;48.378;9.948;2023-04-03T11:39:50;4.65;;;3.72;;
77495;SDS011;66600;48.378;9.948;2023-04-03T11:42:12;6.90;;;3.72;;
77495;SDS011;66600;48.378;9.948;2023-04-03T11:44:40;6.18;;;4.03;;
77495;SDS011;66600;48.378;9.948;2023-04-03T11:47:07;4.88;;;3.40;;
77495;SDS011;66600;48.378;9.948;2023-04-03T12:05:50;5.95;;;3.65;;
77495;SDS011;66600;48.378;9.948;2023-04-03T12:13:34;7.00;;;3.53;;
77495;SDS011;66600;48.378;9.948;2023-04-03T12:16:01;5.18;;;3.58;;
77495;SDS011;66600;48.378;9.948;2023-04-03T12:26:35;5.43;;;3.83;;
77495;SDS011;66600;48.378;9.948;2023-04-03T12:29:25;4.18;;;3.20;;
77495;SDS011;66600;48.378;9.948;2023-04-03T12:48:50;5.75;;;3.25;;
77495;SDS011;66600;48.378;9.948;2023-04-03T12:54:04;7.10;;;3.65;;
77495;SDS011;66600;48.378;9.948;2023-04-03T12:56:43;5.10;;;2.72;;
77495;SDS011;66600;48.378;9.948;2023-04-03T13:01:55;4.88;;;2.78;;
77495;SDS011;66600;48.378;9.948;2023-04-03T13:04:22;5.93;;;3.42;;
77495;SDS011;66600;48.378;9.948;2023-04-03T13:06:48;5.55;;;3.03;;
77495;SDS011;66600;48.378;9.948;2023-04-03T13:09:18;5.60;;;3.05;;
77495;SDS011;66600;48.378;9.948;2023-04-03T13:11:49;5.95;;;2.92;;
77495;SDS011;66600;48.378;9.948;2023-04-03T13:14:20;4.97;;;3.30;;
77495;SDS011;66600;48.378;9.948;2023-04-03T13:19:21;6.13;;;3.40;;
77495;SDS011;66600;48.378;9.948;2023-04-03T13:21:47;5.88;;;2.90;;
77495;SDS011;66600;48.378;9.948;2023-04-03T13:26:42;3.92;;;2.53;;
77495;SDS011;66600;48.378;9.948;2023-04-03T13:29:17;3.90;;;2.90;;
77495;SDS011;66600;48.378;9.948;2023-04-03T13:31:48;4.20;;;2.92;;
77495;SDS011;66600;48.378;9.948;2023-04-03T13:34:19;3.95;;;2.78;;
77495;SDS011;66600;48.378;9.948;2023-04-03T13:41:45;4.13;;;2.78;;
77495;SDS011;66600;48.378;9.948;2023-04-03T13:44:32;4.97;;;2.63;;
77495;SDS011;66600;48.378;9.948;2023-04-03T13:49:37;4.20;;;2.92;;
77495;SDS011;66600;48.378;9.948;2023-04-03T13:54:57;7.35;;;4.05;;
77495;SDS011;66600;48.378;9.948;2023-04-03T13:57:25;8.55;;;3.60;;
77495;SDS011;66600;48.378;9.948;2023-04-03T13:59:51;5.05;;;3.28;;
77495;SDS011;66600;48.378;9.948;2023-04-03T14:02:21;6.65;;;3.85;;
77495;SDS011;66600;48.378;9.948;2023-04-03T14:04:54;9.27;;;4.38;;
77495;SDS011;66600;48.378;9.948;2023-04-03T14:07:25;4.07;;;2.60;;
77495;SDS011;66600;48.378;9.948;2023-04-03T14:09:51;4.78;;;3.28;;
77495;SDS011;66600;48.378;9.948;2023-04-03T14:12:19;5.75;;;3.03;;
77495;SDS011;66600;48.378;9.948;2023-04-03T14:14:45;5.63;;;3.20;;
77495;SDS011;66600;48.378;9.948;2023-04-03T14:17:19;6.03;;;3.45;;
77495;SDS011;66600;48.378;9.948;2023-04-03T14:19:46;6.68;;;3.50;;
77495;SDS011;66600;48.378;9.948;2023-04-03T14:22:14;4.55;;;2.83;;
77495;SDS011;66600;48.378;9.948;2023-04-03T14:24:42;6.55;;;3.20;;
77495;SDS011;66600;48.378;9.948;2023-04-03T14:27:14;4.53;;;2.90;;
77495;SDS011;66600;48.378;9.948;2023-04-03T14:29:43;6.25;;;3.50;;
77495;SDS011;66600;48.378;9.948;2023-04-03T14:32:10;4.85;;;2.65;;
77495;SDS011;66600;48.378;9.948;2023-04-03T14:34:38;5.25;;;3.30;;
77495;SDS011;66600;48.378;9.948;2023-04-03T14:37:04;4.65;;;3.22;;
77495;SDS011;66600;48.378;9.948;2023-04-03T14:39:30;4.45;;;3.08;;
77495;SDS011;66600;48.378;9.948;2023-04-03T14:41:55;4.45;;;2.72;;
77495;SDS011;66600;48.378;9.948;2023-04-03T14:44:20;5.20;;;3.33;;
77495;SDS011;66600;48.378;9.948;2023-04-03T14:46:48;5.80;;;3.22;;
77495;SDS011;66600;48.378;9.948;2023-04-03T14:49:18;3.78;;;2.58;;
77495;SDS011;66600;48.378;9.948;2023-04-03T14:51:46;4.00;;;2.40;;
77495;SDS011;66600;48.378;9.948;2023-04-03T14:54:16;5.82;;;2.75;;
77495;SDS011;66600;48.378;9.948;2023-04-03T14:56:46;3.22;;;2.42;;
77495;SDS011;66600;48.378;9.948;2023-04-03T14:59:12;5.07;;;2.78;;
77495;SDS011;66600;48.378;9.948;2023-04-03T15:01:39;6.20;;;3.03;;
77495;SDS011;66600;48.378;9.948;2023-04-03T15:04:09;3.63;;;2.80;;
77495;SDS011;66600;48.378;9.948;2023-04-03T15:06:36;6.28;;;2.70;;
77495;SDS011;66600;48.378;9.948;2023-04-03T15:09:02;5.82;;;2.88;;
77495;SDS011;66600;48.378;9.948;2023-04-03T15:11:28;4.88;;;2.90;;
77495;SDS011;66600;48.378;9.948;2023-04-03T15:13:53;13.07;;;6.28;;
77495;SDS011;66600;48.378;9.948;2023-04-03T15:16:18;5.70;;;3.50;;
77495;SDS011;66600;48.378;9.948;2023-04-03T15:18:45;4.38;;;2.60;;
77495;SDS011;66600;48.378;9.948;2023-04-03T15:21:11;5.60;;;3.03;;
77495;SDS011;66600;48.378;9.948;2023-04-03T15:23:36;9.00;;;5.05;;
77495;SDS011;66600;48.378;9.948;2023-04-03T15:26:02;4.40;;;2.60;;
77495;SDS011;66600;48.378;9.948;2023-04-03T15:28:30;3.50;;;2.28;;
77495;SDS011;66600;48.378;9.948;2023-04-03T15:30:58;4.05;;;2.80;;
77495;SDS011;66600;48.378;9.948;2023-04-03T15:33:24;4.53;;;2.67;;
77495;SDS011;66600;48.378;9.948;2023-04-03T15:35:50;3.88;;;2.80;;
77495;SDS011;66600;48.378;9.948;2023-04-03T15:38:15;4.20;;;2.30;;
77495;SDS011;66600;48.378;9.948;2023-04-03T15:40:41;4.47;;;2.75;;
77495;SDS011;66600;48.378;9.948;2023-04-03T15:43:07;3.38;;;2.60;;
77495;SDS011;66600;48.378;9.948;2023-04-03T15:45:33;3.15;;;2.45;;
77495;SDS011;66600;48.378;9.948;2023-04-03T15:47:59;3.78;;;2.45;;
77495;SDS011;66600;48.378;9.948;2023-04-03T15:50:26;4.03;;;2.45;;
77495;SDS011;66600;48.378;9.948;2023-04-03T15:52:51;5.50;;;2.38;;
77495;SDS011;66600;48.378;9.948;2023-04-03T15:55:22;3.75;;;2.30;;
77495;SDS011;66600;48.378;9.948;2023-04-03T15:57:51;4.00;;;2.30;;
77495;SDS011;66600;48.378;9.948;2023-04-03T16:00:17;2.80;;;2.20;;
77495;SDS011;66600;48.378;9.948;2023-04-03T16:02:45;5.53;;;2.67;;
77495;SDS011;66600;48.378;9.948;2023-04-03T16:05:11;5.95;;;2.50;;
77495;SDS011;66600;48.378;9.948;2023-04-03T16:07:38;4.47;;;2.40;;
77495;SDS011;66600;48.378;9.948;2023-04-03T16:10:04;4.18;;;2.60;;
77495;SDS011;66600;48.378;9.948;2023-04-03T16:12:31;3.08;;;2.10;;
77495;SDS011;66600;48.378;9.948;2023-04-03T16:14:57;5.10;;;2.03;;
77495;SDS011;66600;48.378;9.948;2023-04-03T16:17:22;3.80;;;2.40;;
77495;SDS011;66600;48.378;9.948;2023-04-03T16:19:47;9.70;;;5.18;;
77495;SDS011;66600;48.378;9.948;2023-04-03T16:22:13;4.25;;;2.08;;
77495;SDS011;66600;48.378;9.948;2023-04-03T16:24:38;3.85;;;1.90;;
77495;SDS011;66600;48.378;9.948;2023-04-03T16:27:04;3.38;;;2.10;;
77495;SDS011;66600;48.378;9.948;2023-04-03T16:29:29;3.60;;;1.85;;
77495;SDS011;66600;48.378;9.948;2023-04-03T16:31:55;3.20;;;1.98;;
77495;SDS011;66600;48.378;9.948;2023-04-03T16:34:21;5.15;;;2.10;;
77495;SDS011;66600;48.378;9.948;2023-04-03T16:36:47;4.40;;;2.17;;
77495;SDS011;66600;48.378;9.948;2023-04-03T16:39:13;5.20;;;2.30;;
77495;SDS011;66600;48.378;9.948;2023-04-03T16:41:38;3.67;;;1.92;;
77495;SDS011;66600;48.378;9.948;2023-04-03T16:44:04;6.85;;;2.40;;
77495;SDS011;66600;48.378;9.948;2023-04-03T16:46:32;4.97;;;2.45;;
77495;SDS011;66600;48.378;9.948;2023-04-03T16:48:57;5.38;;;2.08;;
77495;SDS011;66600;48.378;9.948;2023-04-03T16:51:23;3.65;;;1.95;;
77495;SDS011;66600;48.378;9.948;2023-04-03T16:53:48;4.97;;;2.75;;
77495;SDS011;66600;48.378;9.948;2023-04-03T16:56:13;4.78;;;2.30;;